Terminal Aerodrome Forecast
Issued by NWS

Home | Current Version | Previous Version | Text Only | Print | Product List | Glossary On
Versions: 1 2 3 4 5 6 7 8 9 10 11 12
000
FTUS46 KPDT 031733
TAFRDM
TAF
KRDM 031733Z 0318/0418 30008KT P6SM SCT250
     FM032200 32010KT P6SM SCT070 BKN250
     FM040300 21005KT P6SM VCSH BKN050 BKN100
     FM040800 18007KT P6SM -RASN BKN050 OVC080=

USA.gov is the U.S. government's official web portal to all federal, state and local government web resources and services.